sensor_id;sensor_type;location;lat;lon;timestamp;temperature;humidity
4673;DHT22;61885;53.560;9.940;2024-03-08T00:01:36;1.70;90.90
4673;DHT22;61885;53.560;9.940;2024-03-08T00:03:38;1.80;91.20
4673;DHT22;61885;53.560;9.940;2024-03-08T00:05:40;1.60;91.40
4673;DHT22;61885;53.560;9.940;2024-03-08T00:07:42;1.50;91.10
4673;DHT22;61885;53.560;9.940;2024-03-08T00:09:45;1.60;91.30
4673;DHT22;61885;53.560;9.940;2024-03-08T00:11:48;1.70;91.40
4673;DHT22;61885;53.560;9.940;2024-03-08T00:13:50;1.70;91.30
4673;DHT22;61885;53.560;9.940;2024-03-08T00:15:52;1.80;91.20
4673;DHT22;61885;53.560;9.940;2024-03-08T00:17:54;1.70;91.40
4673;DHT22;61885;53.560;9.940;2024-03-08T00:19:56;1.70;91.40
4673;DHT22;61885;53.560;9.940;2024-03-08T00:21:57;1.70;91.10
4673;DHT22;61885;53.560;9.940;2024-03-08T00:23:59;1.60;91.20
4673;DHT22;61885;53.560;9.940;2024-03-08T00:26:03;1.70;91.10
4673;DHT22;61885;53.560;9.940;2024-03-08T00:28:05;1.60;91.40
4673;DHT22;61885;53.560;9.940;2024-03-08T00:30:07;1.70;91.30
4673;DHT22;61885;53.560;9.940;2024-03-08T00:32:09;1.70;91.50
4673;DHT22;61885;53.560;9.940;2024-03-08T00:34:11;1.70;91.40
4673;DHT22;61885;53.560;9.940;2024-03-08T00:36:13;1.40;91.60
4673;DHT22;61885;53.560;9.940;2024-03-08T00:38:15;1.70;91.50
4673;DHT22;61885;53.560;9.940;2024-03-08T00:40:17;1.60;92.00
4673;DHT22;61885;53.560;9.940;2024-03-08T00:42:20;1.50;91.80
4673;DHT22;61885;53.560;9.940;2024-03-08T00:44:22;1.20;91.90
4673;DHT22;61885;53.560;9.940;2024-03-08T00:46:25;1.50;92.00
4673;DHT22;61885;53.560;9.940;2024-03-08T00:48:28;1.60;92.10
4673;DHT22;61885;53.560;9.940;2024-03-08T00:50:31;1.40;92.10
4673;DHT22;61885;53.560;9.940;2024-03-08T00:52:34;1.60;92.10
4673;DHT22;61885;53.560;9.940;2024-03-08T00:54:35;1.40;92.00
4673;DHT22;61885;53.560;9.940;2024-03-08T00:56:37;1.60;92.20
4673;DHT22;61885;53.560;9.940;2024-03-08T00:58:41;1.50;92.10
4673;DHT22;61885;53.560;9.940;2024-03-08T01:00:42;1.60;92.10
4673;DHT22;61885;53.560;9.940;2024-03-08T01:02:45;1.50;92.20
4673;DHT22;61885;53.560;9.940;2024-03-08T01:04:47;1.40;92.10
4673;DHT22;61885;53.560;9.940;2024-03-08T01:06:48;1.40;92.00
4673;DHT22;61885;53.560;9.940;2024-03-08T01:08:50;1.40;92.50
4673;DHT22;61885;53.560;9.940;2024-03-08T01:10:53;1.50;92.30
4673;DHT22;61885;53.560;9.940;2024-03-08T01:12:55;1.40;92.10
4673;DHT22;61885;53.560;9.940;2024-03-08T01:14:58;1.50;92.10
4673;DHT22;61885;53.560;9.940;2024-03-08T01:17:00;1.10;92.00
4673;DHT22;61885;53.560;9.940;2024-03-08T01:19:01;1.40;92.20
4673;DHT22;61885;53.560;9.940;2024-03-08T01:21:04;1.20;92.40
4673;DHT22;61885;53.560;9.940;2024-03-08T01:23:06;1.30;92.40
4673;DHT22;61885;53.560;9.940;2024-03-08T01:25:08;1.20;92.60
4673;DHT22;61885;53.560;9.940;2024-03-08T01:27:10;1.30;92.80
4673;DHT22;61885;53.560;9.940;2024-03-08T01:29:12;1.10;92.90
4673;DHT22;61885;53.560;9.940;2024-03-08T01:31:16;1.20;92.90
4673;DHT22;61885;53.560;9.940;2024-03-08T01:33:17;1.00;93.10
4673;DHT22;61885;53.560;9.940;2024-03-08T01:35:23;1.00;93.30
4673;DHT22;61885;53.560;9.940;2024-03-08T01:37:27;1.10;93.30
4673;DHT22;61885;53.560;9.940;2024-03-08T01:39:30;1.20;93.50
4673;DHT22;61885;53.560;9.940;2024-03-08T01:41:32;1.20;93.40
4673;DHT22;61885;53.560;9.940;2024-03-08T01:43:34;1.10;93.40
4673;DHT22;61885;53.560;9.940;2024-03-08T01:45:36;1.00;93.40
4673;DHT22;61885;53.560;9.940;2024-03-08T01:47:40;1.10;93.40
4673;DHT22;61885;53.560;9.940;2024-03-08T01:49:41;1.00;93.40
4673;DHT22;61885;53.560;9.940;2024-03-08T01:51:43;0.90;93.60
4673;DHT22;61885;53.560;9.940;2024-03-08T01:53:46;1.00;93.70
4673;DHT22;61885;53.560;9.940;2024-03-08T01:55:50;0.80;93.50
4673;DHT22;61885;53.560;9.940;2024-03-08T01:57:53;0.80;93.70
4673;DHT22;61885;53.560;9.940;2024-03-08T01:59:55;1.00;93.90
4673;DHT22;61885;53.560;9.940;2024-03-08T02:02:01;0.80;93.90
4673;DHT22;61885;53.560;9.940;2024-03-08T02:04:04;1.10;94.10
4673;DHT22;61885;53.560;9.940;2024-03-08T02:06:07;0.80;94.10
4673;DHT22;61885;53.560;9.940;2024-03-08T02:08:10;1.10;94.30
4673;DHT22;61885;53.560;9.940;2024-03-08T02:10:15;0.70;94.00
4673;DHT22;61885;53.560;9.940;2024-03-08T02:12:16;0.80;94.30
4673;DHT22;61885;53.560;9.940;2024-03-08T02:14:21;0.70;94.30
4673;DHT22;61885;53.560;9.940;2024-03-08T02:16:23;0.90;94.60
4673;DHT22;61885;53.560;9.940;2024-03-08T02:18:26;0.80;94.60
4673;DHT22;61885;53.560;9.940;2024-03-08T02:20:30;1.00;94.50
4673;DHT22;61885;53.560;9.940;2024-03-08T02:22:32;0.90;94.50
4673;DHT22;61885;53.560;9.940;2024-03-08T02:24:34;1.00;94.60
4673;DHT22;61885;53.560;9.940;2024-03-08T02:26:36;0.90;94.60
4673;DHT22;61885;53.560;9.940;2024-03-08T02:28:38;0.70;94.50
4673;DHT22;61885;53.560;9.940;2024-03-08T02:30:40;0.60;94.60
4673;DHT22;61885;53.560;9.940;2024-03-08T02:32:42;0.60;94.40
4673;DHT22;61885;53.560;9.940;2024-03-08T02:34:44;0.90;94.50
4673;DHT22;61885;53.560;9.940;2024-03-08T02:36:47;0.80;94.70
4673;DHT22;61885;53.560;9.940;2024-03-08T02:38:48;0.80;94.70
4673;DHT22;61885;53.560;9.940;2024-03-08T02:40:51;0.70;95.00
4673;DHT22;61885;53.560;9.940;2024-03-08T02:42:53;0.70;95.10
4673;DHT22;61885;53.560;9.940;2024-03-08T02:44:54;0.70;94.90
4673;DHT22;61885;53.560;9.940;2024-03-08T02:46:56;0.60;94.90
4673;DHT22;61885;53.560;9.940;2024-03-08T02:48:58;0.70;95.40
4673;DHT22;61885;53.560;9.940;2024-03-08T02:51:00;0.60;95.10
4673;DHT22;61885;53.560;9.940;2024-03-08T02:53:04;0.70;95.30
4673;DHT22;61885;53.560;9.940;2024-03-08T02:55:06;0.60;95.10
4673;DHT22;61885;53.560;9.940;2024-03-08T02:57:09;0.70;95.20
4673;DHT22;61885;53.560;9.940;2024-03-08T02:59:11;0.60;95.50
4673;DHT22;61885;53.560;9.940;2024-03-08T03:01:13;0.60;95.50
4673;DHT22;61885;53.560;9.940;2024-03-08T03:03:15;0.70;95.60
4673;DHT22;61885;53.560;9.940;2024-03-08T03:05:16;0.70;95.50
4673;DHT22;61885;53.560;9.940;2024-03-08T03:07:18;0.70;95.40
4673;DHT22;61885;53.560;9.940;2024-03-08T03:09:23;0.50;95.50
4673;DHT22;61885;53.560;9.940;2024-03-08T03:11:28;0.50;95.60
4673;DHT22;61885;53.560;9.940;2024-03-08T03:13:29;0.40;95.50
4673;DHT22;61885;53.560;9.940;2024-03-08T03:15:31;0.60;95.70
4673;DHT22;61885;53.560;9.940;2024-03-08T03:17:34;0.50;95.90
4673;DHT22;61885;53.560;9.940;2024-03-08T03:19:35;0.50;95.70
4673;DHT22;61885;53.560;9.940;2024-03-08T03:21:37;0.50;95.70
4673;DHT22;61885;53.560;9.940;2024-03-08T03:23:39;0.40;96.00
4673;DHT22;61885;53.560;9.940;2024-03-08T03:25:41;0.50;96.10
4673;DHT22;61885;53.560;9.940;2024-03-08T03:27:43;0.50;95.90
4673;DHT22;61885;53.560;9.940;2024-03-08T03:29:46;0.50;96.10
4673;DHT22;61885;53.560;9.940;2024-03-08T03:31:49;0.20;96.00
4673;DHT22;61885;53.560;9.940;2024-03-08T03:33:51;0.60;96.00
4673;DHT22;61885;53.560;9.940;2024-03-08T03:35:55;0.30;96.20
4673;DHT22;61885;53.560;9.940;2024-03-08T03:37:57;0.30;96.10
4673;DHT22;61885;53.560;9.940;2024-03-08T03:40:09;0.40;96.00
4673;DHT22;61885;53.560;9.940;2024-03-08T03:42:12;0.40;96.20
4673;DHT22;61885;53.560;9.940;2024-03-08T03:44:15;0.40;96.20
4673;DHT22;61885;53.560;9.940;2024-03-08T03:46:17;0.20;96.70
4673;DHT22;61885;53.560;9.940;2024-03-08T03:48:18;0.20;96.40
4673;DHT22;61885;53.560;9.940;2024-03-08T03:50:21;0.30;96.60
4673;DHT22;61885;53.560;9.940;2024-03-08T03:52:24;0.20;96.50
4673;DHT22;61885;53.560;9.940;2024-03-08T03:54:25;0.30;96.90
4673;DHT22;61885;53.560;9.940;2024-03-08T03:56:27;0.20;96.90
4673;DHT22;61885;53.560;9.940;2024-03-08T03:58:30;0.30;96.90
4673;DHT22;61885;53.560;9.940;2024-03-08T04:00:32;0.20;96.80
4673;DHT22;61885;53.560;9.940;2024-03-08T04:02:34;0.20;96.80
4673;DHT22;61885;53.560;9.940;2024-03-08T04:04:36;0.00;96.80
4673;DHT22;61885;53.560;9.940;2024-03-08T04:06:38;0.20;97.20
4673;DHT22;61885;53.560;9.940;2024-03-08T04:08:39;0.30;97.20
4673;DHT22;61885;53.560;9.940;2024-03-08T04:10:41;0.20;96.90
4673;DHT22;61885;53.560;9.940;2024-03-08T04:12:43;0.30;96.90
4673;DHT22;61885;53.560;9.940;2024-03-08T04:14:46;0.20;97.00
4673;DHT22;61885;53.560;9.940;2024-03-08T04:16:48;0.20;96.90
4673;DHT22;61885;53.560;9.940;2024-03-08T04:18:50;0.20;96.70
4673;DHT22;61885;53.560;9.940;2024-03-08T04:20:52;0.00;96.70
4673;DHT22;61885;53.560;9.940;2024-03-08T04:22:53;0.00;96.70
4673;DHT22;61885;53.560;9.940;2024-03-08T04:24:55;0.00;97.10
4673;DHT22;61885;53.560;9.940;2024-03-08T04:26:57;0.00;97.30
4673;DHT22;61885;53.560;9.940;2024-03-08T04:28:59;0.30;97.30
4673;DHT22;61885;53.560;9.940;2024-03-08T04:31:03;0.20;97.40
4673;DHT22;61885;53.560;9.940;2024-03-08T04:33:05;0.00;97.30
4673;DHT22;61885;53.560;9.940;2024-03-08T04:35:08;0.10;97.30
4673;DHT22;61885;53.560;9.940;2024-03-08T04:37:10;0.20;97.40
4673;DHT22;61885;53.560;9.940;2024-03-08T04:39:14;0.10;97.50
4673;DHT22;61885;53.560;9.940;2024-03-08T04:41:16;0.10;97.40
4673;DHT22;61885;53.560;9.940;2024-03-08T04:43:18;0.00;97.50
4673;DHT22;61885;53.560;9.940;2024-03-08T04:45:21;0.20;97.40
4673;DHT22;61885;53.560;9.940;2024-03-08T04:47:24;0.00;97.50
4673;DHT22;61885;53.560;9.940;2024-03-08T04:49:26;0.20;97.40
4673;DHT22;61885;53.560;9.940;2024-03-08T04:51:28;0.20;97.50
4673;DHT22;61885;53.560;9.940;2024-03-08T04:53:30;0.10;97.40
4673;DHT22;61885;53.560;9.940;2024-03-08T04:55:34;0.20;97.50
4673;DHT22;61885;53.560;9.940;2024-03-08T04:57:37;0.00;97.30
4673;DHT22;61885;53.560;9.940;2024-03-08T04:59:39;0.00;97.30
4673;DHT22;61885;53.560;9.940;2024-03-08T05:01:41;0.00;97.30
4673;DHT22;61885;53.560;9.940;2024-03-08T05:03:45;0.00;97.40
4673;DHT22;61885;53.560;9.940;2024-03-08T05:05:49;0.00;97.60
4673;DHT22;61885;53.560;9.940;2024-03-08T05:07:50;0.10;97.50
4673;DHT22;61885;53.560;9.940;2024-03-08T05:09:53;0.00;97.40
4673;DHT22;61885;53.560;9.940;2024-03-08T05:11:55;0.00;97.60
4673;DHT22;61885;53.560;9.940;2024-03-08T05:13:59;0.20;97.60
4673;DHT22;61885;53.560;9.940;2024-03-08T05:16:00;0.00;97.60
4673;DHT22;61885;53.560;9.940;2024-03-08T05:18:01;0.00;97.50
4673;DHT22;61885;53.560;9.940;2024-03-08T05:20:06;0.00;97.70
4673;DHT22;61885;53.560;9.940;2024-03-08T05:22:12;0.00;97.60
4673;DHT22;61885;53.560;9.940;2024-03-08T05:24:14;0.00;97.50
4673;DHT22;61885;53.560;9.940;2024-03-08T05:26:16;0.00;97.60
4673;DHT22;61885;53.560;9.940;2024-03-08T05:28:17;-3276.70;97.70
4673;DHT22;61885;53.560;9.940;2024-03-08T05:30:20;0.00;97.80
4673;DHT22;61885;53.560;9.940;2024-03-08T05:32:22;0.00;97.60
4673;DHT22;61885;53.560;9.940;2024-03-08T05:34:25;-3276.60;97.70
4673;DHT22;61885;53.560;9.940;2024-03-08T05:36:30;-3276.60;97.70
4673;DHT22;61885;53.560;9.940;2024-03-08T05:38:32;-3276.70;97.50
4673;DHT22;61885;53.560;9.940;2024-03-08T05:40:34;0.00;97.70
4673;DHT22;61885;53.560;9.940;2024-03-08T05:42:36;-3276.60;97.80
4673;DHT22;61885;53.560;9.940;2024-03-08T05:44:38;0.00;97.60
4673;DHT22;61885;53.560;9.940;2024-03-08T05:46:41;0.00;97.70
4673;DHT22;61885;53.560;9.940;2024-03-08T05:48:43;0.00;97.40
4673;DHT22;61885;53.560;9.940;2024-03-08T05:50:45;0.00;97.50
4673;DHT22;61885;53.560;9.940;2024-03-08T05:52:48;-3276.70;97.60
4673;DHT22;61885;53.560;9.940;2024-03-08T05:54:50;0.00;97.60
4673;DHT22;61885;53.560;9.940;2024-03-08T05:56:52;-3276.70;97.40
4673;DHT22;61885;53.560;9.940;2024-03-08T05:58:55;-3276.70;97.50
4673;DHT22;61885;53.560;9.940;2024-03-08T06:00:57;0.10;97.40
4673;DHT22;61885;53.560;9.940;2024-03-08T06:02:58;-3276.70;97.70
4673;DHT22;61885;53.560;9.940;2024-03-08T06:04:59;0.20;97.50
4673;DHT22;61885;53.560;9.940;2024-03-08T06:07:02;0.00;97.50
4673;DHT22;61885;53.560;9.940;2024-03-08T06:09:06;0.20;97.30
4673;DHT22;61885;53.560;9.940;2024-03-08T06:11:11;0.00;97.20
4673;DHT22;61885;53.560;9.940;2024-03-08T06:13:15;-3276.60;97.20
4673;DHT22;61885;53.560;9.940;2024-03-08T06:15:16;0.00;97.40
4673;DHT22;61885;53.560;9.940;2024-03-08T06:17:21;0.00;97.30
4673;DHT22;61885;53.560;9.940;2024-03-08T06:19:26;-3276.70;97.30
4673;DHT22;61885;53.560;9.940;2024-03-08T06:21:28;0.00;97.40
4673;DHT22;61885;53.560;9.940;2024-03-08T06:23:29;0.00;97.30
4673;DHT22;61885;53.560;9.940;2024-03-08T06:25:33;0.10;97.40
4673;DHT22;61885;53.560;9.940;2024-03-08T06:27:35;0.10;97.20
4673;DHT22;61885;53.560;9.940;2024-03-08T06:29:37;0.00;97.10
4673;DHT22;61885;53.560;9.940;2024-03-08T06:31:39;0.30;97.10
4673;DHT22;61885;53.560;9.940;2024-03-08T06:33:41;0.10;97.00
4673;DHT22;61885;53.560;9.940;2024-03-08T06:35:43;0.20;96.90
4673;DHT22;61885;53.560;9.940;2024-03-08T06:37:45;0.10;96.80
4673;DHT22;61885;53.560;9.940;2024-03-08T06:39:47;0.40;96.60
4673;DHT22;61885;53.560;9.940;2024-03-08T06:41:50;0.20;96.50
4673;DHT22;61885;53.560;9.940;2024-03-08T06:43:52;0.30;96.20
4673;DHT22;61885;53.560;9.940;2024-03-08T06:45:58;0.40;96.20
4673;DHT22;61885;53.560;9.940;2024-03-08T06:48:00;0.30;96.20
4673;DHT22;61885;53.560;9.940;2024-03-08T06:50:01;0.40;95.80
4673;DHT22;61885;53.560;9.940;2024-03-08T06:52:05;0.40;95.60
4673;DHT22;61885;53.560;9.940;2024-03-08T06:54:09;0.50;95.50
4673;DHT22;61885;53.560;9.940;2024-03-08T06:56:11;0.60;95.00
4673;DHT22;61885;53.560;9.940;2024-03-08T06:58:14;0.50;95.10
4673;DHT22;61885;53.560;9.940;2024-03-08T07:00:17;0.40;94.70
4673;DHT22;61885;53.560;9.940;2024-03-08T07:02:21;1.10;96.00
4673;DHT22;61885;53.560;9.940;2024-03-08T07:04:25;0.90;94.70
4673;DHT22;61885;53.560;9.940;2024-03-08T07:06:30;0.90;94.10
4673;DHT22;61885;53.560;9.940;2024-03-08T07:08:33;0.80;93.60
4673;DHT22;61885;53.560;9.940;2024-03-08T07:10:35;0.80;93.90
4673;DHT22;61885;53.560;9.940;2024-03-08T07:12:37;0.80;93.70
4673;DHT22;61885;53.560;9.940;2024-03-08T07:14:40;0.70;93.60
4673;DHT22;61885;53.560;9.940;2024-03-08T07:16:42;0.90;93.70
4673;DHT22;61885;53.560;9.940;2024-03-08T07:18:45;1.00;93.20
4673;DHT22;61885;53.560;9.940;2024-03-08T07:20:47;0.90;93.30
4673;DHT22;61885;53.560;9.940;2024-03-08T07:22:49;1.00;93.10
4673;DHT22;61885;53.560;9.940;2024-03-08T07:24:51;1.00;92.80
4673;DHT22;61885;53.560;9.940;2024-03-08T07:27:16;0.90;92.90
4673;DHT22;61885;53.560;9.940;2024-03-08T07:29:18;0.90;93.10
4673;DHT22;61885;53.560;9.940;2024-03-08T07:31:21;1.20;92.70
4673;DHT22;61885;53.560;9.940;2024-03-08T07:33:32;1.00;92.40
4673;DHT22;61885;53.560;9.940;2024-03-08T07:35:34;1.30;92.20
4673;DHT22;61885;53.560;9.940;2024-03-08T07:37:37;1.20;91.60
4673;DHT22;61885;53.560;9.940;2024-03-08T07:39:40;1.40;91.20
4673;DHT22;61885;53.560;9.940;2024-03-08T07:41:42;1.30;90.60
4673;DHT22;61885;53.560;9.940;2024-03-08T07:43:43;1.30;90.50
4673;DHT22;61885;53.560;9.940;2024-03-08T07:45:45;1.20;90.10
4673;DHT22;61885;53.560;9.940;2024-03-08T07:47:49;1.40;90.00
4673;DHT22;61885;53.560;9.940;2024-03-08T07:49:51;1.40;89.70
4673;DHT22;61885;53.560;9.940;2024-03-08T07:51:54;1.60;89.20
4673;DHT22;61885;53.560;9.940;2024-03-08T07:53:56;1.60;89.00
4673;DHT22;61885;53.560;9.940;2024-03-08T07:55:58;1.40;88.80
4673;DHT22;61885;53.560;9.940;2024-03-08T07:58:00;1.60;88.50
4673;DHT22;61885;53.560;9.940;2024-03-08T08:00:04;1.50;88.30
4673;DHT22;61885;53.560;9.940;2024-03-08T08:02:07;1.80;88.40
4673;DHT22;61885;53.560;9.940;2024-03-08T08:04:10;1.90;87.70
4673;DHT22;61885;53.560;9.940;2024-03-08T08:06:13;1.60;87.70
4673;DHT22;61885;53.560;9.940;2024-03-08T08:08:16;2.00;87.60
4673;DHT22;61885;53.560;9.940;2024-03-08T08:10:18;1.80;87.10
4673;DHT22;61885;53.560;9.940;2024-03-08T08:12:22;2.00;87.30
4673;DHT22;61885;53.560;9.940;2024-03-08T08:14:24;1.90;87.10
4673;DHT22;61885;53.560;9.940;2024-03-08T08:16:25;1.90;86.80
4673;DHT22;61885;53.560;9.940;2024-03-08T08:18:26;1.90;86.60
4673;DHT22;61885;53.560;9.940;2024-03-08T08:20:31;2.20;86.30
4673;DHT22;61885;53.560;9.940;2024-03-08T08:22:33;1.90;86.50
4673;DHT22;61885;53.560;9.940;2024-03-08T08:24:34;2.10;86.30
4673;DHT22;61885;53.560;9.940;2024-03-08T08:26:37;2.00;86.40
4673;DHT22;61885;53.560;9.940;2024-03-08T08:28:39;2.30;86.10
4673;DHT22;61885;53.560;9.940;2024-03-08T08:30:43;2.20;86.20
4673;DHT22;61885;53.560;9.940;2024-03-08T08:32:44;2.10;85.60
4673;DHT22;61885;53.560;9.940;2024-03-08T08:34:47;2.20;85.50
4673;DHT22;61885;53.560;9.940;2024-03-08T08:36:50;2.40;84.90
4673;DHT22;61885;53.560;9.940;2024-03-08T08:38:53;2.40;84.90
4673;DHT22;61885;53.560;9.940;2024-03-08T08:40:55;2.40;85.10
4673;DHT22;61885;53.560;9.940;2024-03-08T08:42:56;2.60;84.90
4673;DHT22;61885;53.560;9.940;2024-03-08T08:44:59;2.30;84.90
4673;DHT22;61885;53.560;9.940;2024-03-08T08:46:59;2.60;84.80
4673;DHT22;61885;53.560;9.940;2024-03-08T08:49:01;2.50;84.10
4673;DHT22;61885;53.560;9.940;2024-03-08T08:51:03;2.70;83.90
4673;DHT22;61885;53.560;9.940;2024-03-08T08:53:08;2.60;83.70
4673;DHT22;61885;53.560;9.940;2024-03-08T08:55:11;2.80;83.60
4673;DHT22;61885;53.560;9.940;2024-03-08T08:57:14;2.70;83.60
4673;DHT22;61885;53.560;9.940;2024-03-08T08:59:16;2.70;83.40
4673;DHT22;61885;53.560;9.940;2024-03-08T09:01:20;3.10;82.50
4673;DHT22;61885;53.560;9.940;2024-03-08T09:03:21;3.10;82.80
4673;DHT22;61885;53.560;9.940;2024-03-08T09:05:24;3.00;82.30
4673;DHT22;61885;53.560;9.940;2024-03-08T09:07:26;3.00;82.50
4673;DHT22;61885;53.560;9.940;2024-03-08T09:09:29;3.10;82.30
4673;DHT22;61885;53.560;9.940;2024-03-08T09:11:31;3.10;82.60
4673;DHT22;61885;53.560;9.940;2024-03-08T09:13:33;3.20;82.60
4673;DHT22;61885;53.560;9.940;2024-03-08T09:15:34;3.20;82.10
4673;DHT22;61885;53.560;9.940;2024-03-08T09:17:37;3.40;81.60
4673;DHT22;61885;53.560;9.940;2024-03-08T09:19:40;3.30;81.80
4673;DHT22;61885;53.560;9.940;2024-03-08T09:21:42;3.50;81.40
4673;DHT22;61885;53.560;9.940;2024-03-08T09:23:43;3.40;81.20
4673;DHT22;61885;53.560;9.940;2024-03-08T09:25:47;3.60;80.30
4673;DHT22;61885;53.560;9.940;2024-03-08T09:27:48;3.70;80.70
4673;DHT22;61885;53.560;9.940;2024-03-08T09:29:50;3.50;80.00
4673;DHT22;61885;53.560;9.940;2024-03-08T09:31:52;3.40;80.10
4673;DHT22;61885;53.560;9.940;2024-03-08T09:33:54;3.70;80.00
4673;DHT22;61885;53.560;9.940;2024-03-08T09:35:55;3.80;79.50
4673;DHT22;61885;53.560;9.940;2024-03-08T09:37:58;4.00;79.90
4673;DHT22;61885;53.560;9.940;2024-03-08T09:40:00;3.90;79.90
4673;DHT22;61885;53.560;9.940;2024-03-08T09:42:06;3.90;79.40
4673;DHT22;61885;53.560;9.940;2024-03-08T09:44:08;4.10;79.90
4673;DHT22;61885;53.560;9.940;2024-03-08T09:46:10;3.90;79.30
4673;DHT22;61885;53.560;9.940;2024-03-08T09:48:13;4.10;78.90
4673;DHT22;61885;53.560;9.940;2024-03-08T09:50:15;4.10;78.50
4673;DHT22;61885;53.560;9.940;2024-03-08T09:52:18;3.90;78.00
4673;DHT22;61885;53.560;9.940;2024-03-08T09:54:20;4.30;77.80
4673;DHT22;61885;53.560;9.940;2024-03-08T09:56:22;4.20;77.70
4673;DHT22;61885;53.560;9.940;2024-03-08T09:58:26;4.40;77.50
4673;DHT22;61885;53.560;9.940;2024-03-08T10:00:48;4.60;77.00
4673;DHT22;61885;53.560;9.940;2024-03-08T10:02:50;4.40;76.80
4673;DHT22;61885;53.560;9.940;2024-03-08T10:04:52;4.60;76.90
4673;DHT22;61885;53.560;9.940;2024-03-08T10:06:54;4.50;76.60
4673;DHT22;61885;53.560;9.940;2024-03-08T10:08:57;4.60;76.40
4673;DHT22;61885;53.560;9.940;2024-03-08T10:10:59;4.60;76.30
4673;DHT22;61885;53.560;9.940;2024-03-08T10:13:01;4.70;76.20
4673;DHT22;61885;53.560;9.940;2024-03-08T10:15:08;4.60;76.30
4673;DHT22;61885;53.560;9.940;2024-03-08T10:17:09;4.90;76.10
4673;DHT22;61885;53.560;9.940;2024-03-08T10:19:11;5.00;75.60
4673;DHT22;61885;53.560;9.940;2024-03-08T10:21:13;4.70;74.80
4673;DHT22;61885;53.560;9.940;2024-03-08T10:23:16;4.80;73.50
4673;DHT22;61885;53.560;9.940;2024-03-08T10:25:18;5.10;72.90
4673;DHT22;61885;53.560;9.940;2024-03-08T10:27:20;5.00;72.70
4673;DHT22;61885;53.560;9.940;2024-03-08T10:29:22;5.10;73.50
4673;DHT22;61885;53.560;9.940;2024-03-08T10:31:24;5.10;72.90
4673;DHT22;61885;53.560;9.940;2024-03-08T10:33:26;5.20;73.20
4673;DHT22;61885;53.560;9.940;2024-03-08T10:35:28;5.20;73.30
4673;DHT22;61885;53.560;9.940;2024-03-08T10:37:30;5.30;73.20
4673;DHT22;61885;53.560;9.940;2024-03-08T10:39:35;5.50;73.20
4673;DHT22;61885;53.560;9.940;2024-03-08T10:41:38;5.50;72.60
4673;DHT22;61885;53.560;9.940;2024-03-08T10:43:52;5.40;71.90
4673;DHT22;61885;53.560;9.940;2024-03-08T10:46:09;5.40;70.90
4673;DHT22;61885;53.560;9.940;2024-03-08T10:48:26;5.50;70.80
4673;DHT22;61885;53.560;9.940;2024-03-08T10:50:32;5.40;69.90
4673;DHT22;61885;53.560;9.940;2024-03-08T10:52:36;5.50;70.50
4673;DHT22;61885;53.560;9.940;2024-03-08T10:54:37;5.50;69.60
4673;DHT22;61885;53.560;9.940;2024-03-08T10:56:39;5.60;69.50
4673;DHT22;61885;53.560;9.940;2024-03-08T10:58:42;5.50;68.30
4673;DHT22;61885;53.560;9.940;2024-03-08T11:00:44;5.70;69.00
4673;DHT22;61885;53.560;9.940;2024-03-08T11:02:46;5.60;68.10
4673;DHT22;61885;53.560;9.940;2024-03-08T11:04:50;5.80;68.10
4673;DHT22;61885;53.560;9.940;2024-03-08T11:06:51;5.70;67.00
4673;DHT22;61885;53.560;9.940;2024-03-08T11:08:54;5.80;68.40
4673;DHT22;61885;53.560;9.940;2024-03-08T11:10:58;5.80;68.00
4673;DHT22;61885;53.560;9.940;2024-03-08T11:13:00;5.70;68.60
4673;DHT22;61885;53.560;9.940;2024-03-08T11:15:10;5.70;68.70
4673;DHT22;61885;53.560;9.940;2024-03-08T11:17:13;5.80;67.60
4673;DHT22;61885;53.560;9.940;2024-03-08T11:19:25;5.80;67.90
4673;DHT22;61885;53.560;9.940;2024-03-08T11:21:30;5.80;67.50
4673;DHT22;61885;53.560;9.940;2024-03-08T11:23:34;5.80;67.80
4673;DHT22;61885;53.560;9.940;2024-03-08T11:25:37;6.00;68.00
4673;DHT22;61885;53.560;9.940;2024-03-08T11:27:52;6.20;66.60
4673;DHT22;61885;53.560;9.940;2024-03-08T11:30:04;6.10;66.80
4673;DHT22;61885;53.560;9.940;2024-03-08T11:32:12;6.10;66.90
4673;DHT22;61885;53.560;9.940;2024-03-08T11:34:16;6.10;66.90
4673;DHT22;61885;53.560;9.940;2024-03-08T11:36:21;6.30;66.10
4673;DHT22;61885;53.560;9.940;2024-03-08T11:38:24;6.30;65.70
4673;DHT22;61885;53.560;9.940;2024-03-08T11:40:26;6.20;65.90
4673;DHT22;61885;53.560;9.940;2024-03-08T11:42:28;6.20;66.40
4673;DHT22;61885;53.560;9.940;2024-03-08T11:44:31;6.20;65.80
4673;DHT22;61885;53.560;9.940;2024-03-08T11:46:33;6.20;66.20
4673;DHT22;61885;53.560;9.940;2024-03-08T11:48:35;6.20;65.90
4673;DHT22;61885;53.560;9.940;2024-03-08T11:50:37;6.30;65.90
4673;DHT22;61885;53.560;9.940;2024-03-08T11:52:39;6.40;65.60
4673;DHT22;61885;53.560;9.940;2024-03-08T11:54:41;6.40;66.00
4673;DHT22;61885;53.560;9.940;2024-03-08T11:56:44;6.40;66.30
4673;DHT22;61885;53.560;9.940;2024-03-08T11:58:53;6.50;65.70
4673;DHT22;61885;53.560;9.940;2024-03-08T12:01:03;6.50;65.40
4673;DHT22;61885;53.560;9.940;2024-03-08T12:03:06;6.50;64.80
4673;DHT22;61885;53.560;9.940;2024-03-08T12:05:10;6.50;63.50
4673;DHT22;61885;53.560;9.940;2024-03-08T12:07:17;6.50;62.90
4673;DHT22;61885;53.560;9.940;2024-03-08T12:09:19;6.50;62.50
4673;DHT22;61885;53.560;9.940;2024-03-08T12:11:24;6.40;62.70
4673;DHT22;61885;53.560;9.940;2024-03-08T12:13:26;6.50;63.40
4673;DHT22;61885;53.560;9.940;2024-03-08T12:15:29;6.70;63.20
4673;DHT22;61885;53.560;9.940;2024-03-08T12:17:33;6.70;64.20
4673;DHT22;61885;53.560;9.940;2024-03-08T12:19:35;6.80;64.30
4673;DHT22;61885;53.560;9.940;2024-03-08T12:21:38;7.00;64.20
4673;DHT22;61885;53.560;9.940;2024-03-08T12:24:02;7.00;62.50
4673;DHT22;61885;53.560;9.940;2024-03-08T12:26:15;7.00;62.80
4673;DHT22;61885;53.560;9.940;2024-03-08T12:28:19;7.00;62.40
4673;DHT22;61885;53.560;9.940;2024-03-08T12:30:23;7.10;62.40
4673;DHT22;61885;53.560;9.940;2024-03-08T12:32:27;7.10;61.80
4673;DHT22;61885;53.560;9.940;2024-03-08T12:34:28;7.20;62.30
4673;DHT22;61885;53.560;9.940;2024-03-08T12:36:30;7.40;61.90
4673;DHT22;61885;53.560;9.940;2024-03-08T12:38:31;7.20;62.00
4673;DHT22;61885;53.560;9.940;2024-03-08T12:40:35;7.50;60.90
4673;DHT22;61885;53.560;9.940;2024-03-08T12:42:41;7.60;61.10
4673;DHT22;61885;53.560;9.940;2024-03-08T12:44:45;7.70;60.80
4673;DHT22;61885;53.560;9.940;2024-03-08T12:46:47;7.90;60.60
4673;DHT22;61885;53.560;9.940;2024-03-08T12:48:49;8.30;60.10
4673;DHT22;61885;53.560;9.940;2024-03-08T12:50:51;8.30;59.40
4673;DHT22;61885;53.560;9.940;2024-03-08T12:52:54;8.60;58.50
4673;DHT22;61885;53.560;9.940;2024-03-08T12:54:56;8.80;57.30
4673;DHT22;61885;53.560;9.940;2024-03-08T12:56:58;8.90;57.50
4673;DHT22;61885;53.560;9.940;2024-03-08T12:59:00;8.80;57.20
4673;DHT22;61885;53.560;9.940;2024-03-08T13:01:03;9.00;56.70
4673;DHT22;61885;53.560;9.940;2024-03-08T13:03:08;9.10;57.30
4673;DHT22;61885;53.560;9.940;2024-03-08T13:05:11;9.20;56.30
4673;DHT22;61885;53.560;9.940;2024-03-08T13:07:14;9.30;56.80
4673;DHT22;61885;53.560;9.940;2024-03-08T13:09:17;9.40;56.70
4673;DHT22;61885;53.560;9.940;2024-03-08T13:11:20;9.60;56.40
4673;DHT22;61885;53.560;9.940;2024-03-08T13:13:21;9.70;57.30
4673;DHT22;61885;53.560;9.940;2024-03-08T13:15:23;9.90;56.70
4673;DHT22;61885;53.560;9.940;2024-03-08T13:17:26;9.90;55.70
4673;DHT22;61885;53.560;9.940;2024-03-08T13:19:27;10.10;54.80
4673;DHT22;61885;53.560;9.940;2024-03-08T13:21:29;10.10;54.50